Time;durP1;ratioP1;P1;durP2;ratioP2;P2;SDS_P1;SDS_P2;PMS_P1;PMS_P2;Temp;Humidity;BMP_temperature;BMP_pressure;BME280_temperature;BME280_humidity;BME280_pressure;Samples;Min_cycle;Max_cycle;Signal;HPM_P1;HPM_P2
2022/04/03 00:00:40;;;;;;;5.07;2.22;;;-1.50;99.50;;;;;;5000210;28;20052;-68
2022/04/03 00:03:06;;;;;;;3.72;1.90;;;-1.50;99.90;;;;;;5003567;28;20504;-68
2022/04/03 00:05:38;;;;;;;5.95;1.80;;;-1.50;99.80;;;;;;5001463;28;20045;-68
2022/04/03 00:08:07;;;;;;;4.18;2.20;;;-1.50;99.90;;;;;;5021918;28;20041;-68
2022/04/03 00:10:34;;;;;;;3.83;2.42;;;-1.50;99.90;;;;;;5004007;28;20037;-68
2022/04/03 00:12:59;;;;;;;7.25;2.47;;;-1.50;99.90;;;;;;5001751;28;20045;-68
2022/04/03 00:15:25;;;;;;;4.22;2.80;;;-1.60;99.90;;;;;;5002174;28;20547;-69
2022/04/03 00:17:51;;;;;;;3.58;2.17;;;-1.60;99.90;;;;;;5020202;28;20045;-69
2022/04/03 00:20:17;;;;;;;5.03;2.03;;;-1.50;99.70;;;;;;5003064;28;20375;-69
2022/04/03 00:22:48;;;;;;;5.63;2.35;;;-1.60;98.90;;;;;;4987863;28;20573;-69
2022/04/03 00:25:18;;;;;;;4.57;2.08;;;-1.60;98.60;;;;;;5003156;28;20092;-69
2022/04/03 00:27:47;;;;;;;3.95;2.40;;;-1.60;99.00;;;;;;4999785;28;20091;-68
2022/04/03 00:30:14;;;;;;;4.13;2.05;;;-1.50;98.70;;;;;;4987763;28;20053;-68
2022/04/03 00:32:40;;;;;;;5.45;2.45;;;-1.50;98.60;;;;;;5002032;28;20052;-68
2022/04/03 00:35:06;;;;;;;3.25;2.08;;;-1.50;99.10;;;;;;5004377;28;20404;-68
2022/04/03 00:37:32;;;;;;;5.80;1.92;;;-1.40;99.20;;;;;;5005204;28;20084;-67
2022/04/03 00:39:58;;;;;;;3.83;2.50;;;-1.50;99.70;;;;;;5009754;28;20045;-68
2022/04/03 00:42:24;;;;;;;3.22;1.90;;;-1.40;99.50;;;;;;5004225;28;20056;-68
2022/04/03 00:44:50;;;;;;;3.30;2.30;;;-1.40;99.10;;;;;;5007073;28;20124;-68
2022/04/03 00:47:18;;;;;;;2.88;2.20;;;-1.40;99.10;;;;;;5006675;28;20105;-68
2022/04/03 00:49:45;;;;;;;5.78;2.15;;;-1.40;98.80;;;;;;5025842;28;20403;-68
2022/04/03 00:52:11;;;;;;;4.78;2.00;;;-1.50;98.60;;;;;;5007075;28;20041;-68
2022/04/03 00:54:37;;;;;;;3.58;2.10;;;-1.50;98.70;;;;;;4990667;28;20030;-69
2022/04/03 00:57:07;;;;;;;4.28;2.40;;;-1.50;99.40;;;;;;5005639;28;20388;-68
2022/04/03 00:59:34;;;;;;;5.50;2.38;;;-1.50;99.90;;;;;;5006828;28;20050;-67
2022/04/03 01:02:00;;;;;;;4.57;2.30;;;-1.50;99.90;;;;;;5007682;28;20033;-67
2022/04/03 01:04:26;;;;;;;5.78;2.40;;;-1.50;99.50;;;;;;5005982;28;20522;-68
2022/04/03 01:06:52;;;;;;;3.42;2.20;;;-1.50;99.20;;;;;;5006276;28;20052;-68
2022/04/03 01:09:18;;;;;;;6.75;2.53;;;-1.50;99.60;;;;;;5025157;28;20480;-68
2022/04/03 01:11:45;;;;;;;5.10;2.33;;;-1.50;99.10;;;;;;5007506;28;20046;-68
2022/04/03 01:14:11;;;;;;;4.13;2.47;;;-1.50;99.10;;;;;;5005650;28;20125;-68
2022/04/03 01:16:37;;;;;;;5.30;2.45;;;-1.40;99.90;;;;;;5004092;28;20521;-68
2022/04/03 01:19:03;;;;;;;3.78;2.42;;;-1.40;99.90;;;;;;5008361;28;20045;-67
2022/04/03 01:21:29;;;;;;;3.53;2.08;;;-1.40;99.90;;;;;;5005721;28;20096;-68
2022/04/03 01:23:55;;;;;;;5.90;2.28;;;-1.30;99.90;;;;;;5022189;28;20045;-68
2022/04/03 01:26:23;;;;;;;7.18;2.53;;;-1.30;99.90;;;;;;5005768;28;20457;-68
2022/04/03 01:28:49;;;;;;;5.50;2.50;;;-1.30;99.90;;;;;;5004281;28;21523;-68
2022/04/03 01:31:14;;;;;;;5.15;2.40;;;-1.20;99.90;;;;;;5004567;28;20102;-68
2022/04/03 01:33:40;;;;;;;4.05;2.40;;;-1.20;99.90;;;;;;5006749;28;20037;-68
2022/04/03 01:36:06;;;;;;;4.53;2.38;;;-1.20;99.90;;;;;;5023406;28;20784;-68
2022/04/03 01:38:31;;;;;;;5.20;2.78;;;-1.10;99.90;;;;;;5023034;28;20060;-68
2022/04/03 01:40:57;;;;;;;4.85;2.58;;;-1.10;99.90;;;;;;5005295;28;20521;-69
2022/04/03 01:43:23;;;;;;;4.25;2.85;;;-1.00;99.90;;;;;;5003858;28;20566;-69
2022/04/03 01:45:49;;;;;;;3.10;2.50;;;-1.00;99.90;;;;;;5024847;28;20103;-69
2022/04/03 01:48:14;;;;;;;5.32;2.90;;;-1.00;99.90;;;;;;5005247;28;20473;-69
2022/04/03 01:50:40;;;;;;;7.07;3.13;;;-0.90;99.90;;;;;;5006547;28;20350;-69
2022/04/03 01:53:06;;;;;;;5.18;2.95;;;-0.90;99.90;;;;;;5006728;28;20132;-68
2022/04/03 01:55:32;;;;;;;5.00;2.90;;;-0.90;99.90;;;;;;5001950;28;20046;-68
2022/04/03 01:57:58;;;;;;;7.43;3.78;;;-0.80;99.90;;;;;;5004708;28;20474;-68
2022/04/03 02:00:24;;;;;;;7.75;3.65;;;-0.90;99.90;;;;;;5008010;28;20065;-68
2022/04/03 02:02:50;;;;;;;7.75;4.00;;;-0.80;99.90;;;;;;5005206;28;20073;-67
2022/04/03 02:05:16;;;;;;;7.32;3.97;;;-0.80;99.90;;;;;;5016572;28;20084;-68
2022/04/03 02:07:42;;;;;;;10.15;3.55;;;-0.90;99.90;;;;;;5000897;28;20140;-68
2022/04/03 02:10:09;;;;;;;5.57;3.70;;;-0.90;99.90;;;;;;5002054;28;20116;-68
2022/04/03 02:12:39;;;;;;;6.65;3.83;;;-0.90;99.90;;;;;;5000853;28;20034;-68
2022/04/03 02:15:10;;;;;;;6.45;3.15;;;-0.90;99.90;;;;;;5007040;28;20483;-67
2022/04/03 02:17:36;;;;;;;6.97;3.85;;;-0.90;99.90;;;;;;5004232;28;20116;-68
2022/04/03 02:20:03;;;;;;;5.75;3.03;;;-0.90;99.90;;;;;;5005413;28;20200;-68
2022/04/03 02:22:28;;;;;;;5.80;3.33;;;-0.90;99.90;;;;;;5004188;28;20956;-68
2022/04/03 02:24:54;;;;;;;5.03;3.05;;;-0.90;99.90;;;;;;5004807;28;20127;-68
2022/04/03 02:27:20;;;;;;;6.15;3.53;;;-0.90;99.90;;;;;;4988190;28;20445;-68
2022/04/03 02:29:45;;;;;;;5.82;3.67;;;-0.80;99.90;;;;;;5005501;28;20169;-68
2022/04/03 02:32:11;;;;;;;6.82;3.60;;;-0.80;99.90;;;;;;4989208;28;20060;-69
2022/04/03 02:34:37;;;;;;;8.68;3.53;;;-0.90;99.90;;;;;;5005479;28;20037;-68
2022/04/03 02:37:02;;;;;;;6.93;3.38;;;-0.90;99.90;;;;;;5005426;28;20057;-69
2022/04/03 02:39:28;;;;;;;6.53;3.40;;;-0.90;99.90;;;;;;5003098;28;20041;-68
2022/04/03 02:41:54;;;;;;;8.40;3.53;;;-0.90;99.90;;;;;;5003869;28;20056;-68
2022/04/03 02:44:19;;;;;;;6.22;3.03;;;-1.00;99.90;;;;;;5020118;28;20535;-68
2022/04/03 02:46:45;;;;;;;6.45;3.50;;;-1.00;99.90;;;;;;5004876;28;20473;-68
2022/04/03 02:49:11;;;;;;;5.22;3.03;;;-1.00;99.90;;;;;;5004791;28;20033;-68
2022/04/03 02:51:37;;;;;;;6.28;3.33;;;-1.00;99.90;;;;;;5002294;28;20038;-69
2022/04/03 02:54:03;;;;;;;6.32;2.58;;;-1.00;99.90;;;;;;5002598;28;20064;-68
2022/04/03 02:56:29;;;;;;;4.07;2.85;;;-1.00;99.90;;;;;;5022012;28;20045;-68
2022/04/03 02:58:55;;;;;;;6.20;3.30;;;-1.00;99.90;;;;;;5021336;28;20376;-69
2022/04/03 03:01:22;;;;;;;7.40;3.22;;;-1.00;99.90;;;;;;4984586;28;20060;-69
2022/04/03 03:03:47;;;;;;;4.55;2.55;;;-1.00;99.90;;;;;;5004904;28;20164;-68
2022/04/03 03:06:14;;;;;;;7.25;3.13;;;-1.00;99.90;;;;;;5001594;28;20116;-68
2022/04/03 03:08:41;;;;;;;6.72;2.63;;;-1.00;99.90;;;;;;5002720;28;20063;-68
2022/04/03 03:11:07;;;;;;;4.68;2.80;;;-1.10;99.90;;;;;;5004166;28;20103;-69
2022/04/03 03:13:33;;;;;;;5.55;2.60;;;-1.10;99.90;;;;;;4984342;28;20657;-69
2022/04/03 03:15:59;;;;;;;3.72;2.53;;;-1.10;99.90;;;;;;5003933;28;20056;-69
2022/04/03 03:18:25;;;;;;;6.22;3.13;;;-1.10;99.90;;;;;;5003480;28;20033;-69
2022/04/03 03:20:51;;;;;;;4.95;2.95;;;-1.20;99.90;;;;;;5004170;28;20494;-69
2022/04/03 03:23:17;;;;;;;5.22;3.03;;;-1.20;99.90;;;;;;5001279;28;20132;-69
2022/04/03 03:25:45;;;;;;;4.68;2.47;;;-1.20;99.90;;;;;;5010875;28;20509;-69
2022/04/03 03:28:14;;;;;;;3.80;2.65;;;-1.20;99.90;;;;;;5004294;28;20052;-69
2022/04/03 03:30:40;;;;;;;4.78;2.70;;;-1.20;99.90;;;;;;5003884;28;20038;-69
2022/04/03 03:33:06;;;;;;;4.18;2.42;;;-1.20;99.90;;;;;;5003641;28;20066;-69
2022/04/03 03:35:33;;;;;;;5.63;3.13;;;-1.10;99.90;;;;;;5004085;28;20050;-69
2022/04/03 03:38:00;;;;;;;5.45;2.40;;;-1.00;99.90;;;;;;5003330;28;20065;-69
2022/04/03 03:40:27;;;;;;;6.20;3.28;;;-1.00;99.90;;;;;;5003718;28;20049;-69
2022/04/03 03:42:52;;;;;;;4.80;2.50;;;-0.90;99.90;;;;;;5003374;28;20505;-69
2022/04/03 03:45:18;;;;;;;3.85;2.83;;;-0.80;99.90;;;;;;5003027;28;20133;-69
2022/04/03 03:47:45;;;;;;;4.68;3.13;;;-0.80;99.90;;;;;;5002508;28;20385;-69
2022/04/03 03:50:12;;;;;;;5.20;2.33;;;-0.70;99.90;;;;;;5004591;28;20049;-69
2022/04/03 03:52:38;;;;;;;3.47;2.83;;;-0.70;99.90;;;;;;5004043;28;20048;-69
2022/04/03 03:55:04;;;;;;;3.65;2.50;;;-0.60;99.90;;;;;;5020624;28;20106;-69
2022/04/03 03:57:30;;;;;;;4.30;2.45;;;-0.50;99.90;;;;;;5005136;28;20103;-69
2022/04/03 03:59:55;;;;;;;4.15;2.60;;;-0.50;99.90;;;;;;5002531;28;20033;-68
2022/04/03 04:02:21;;;;;;;4.20;2.67;;;-0.40;99.90;;;;;;5001850;28;20132;-68
2022/04/03 04:04:47;;;;;;;5.35;2.60;;;-0.30;99.90;;;;;;4996621;28;20053;-68
2022/04/03 04:07:12;;;;;;;5.95;2.70;;;-0.30;99.90;;;;;;5002542;28;20481;-69
2022/04/03 04:09:39;;;;;;;6.53;3.00;;;-0.20;99.90;;;;;;5004580;28;20333;-68
2022/04/03 04:12:06;;;;;;;3.38;2.50;;;-0.10;99.90;;;;;;5003472;28;20077;-68
2022/04/03 04:14:32;;;;;;;5.22;2.78;;;-0.10;99.90;;;;;;5007710;28;20048;-68
2022/04/03 04:16:57;;;;;;;4.35;2.25;;;0.00;99.90;;;;;;5004649;28;20432;-68
2022/04/03 04:19:24;;;;;;;4.35;2.65;;;0.00;99.90;;;;;;5007139;28;20054;-68
2022/04/03 04:21:51;;;;;;;5.38;2.58;;;0.10;99.90;;;;;;5007789;28;20425;-67
2022/04/03 04:24:16;;;;;;;4.00;2.15;;;0.20;99.90;;;;;;5022279;28;20466;-67
2022/04/03 04:26:42;;;;;;;5.20;3.00;;;0.20;99.90;;;;;;5005953;28;20124;-67
2022/04/03 04:29:08;;;;;;;4.47;2.50;;;0.20;99.90;;;;;;5006509;28;20136;-67
2022/04/03 04:31:33;;;;;;;3.95;2.80;;;0.30;99.90;;;;;;5005553;28;20092;-68
2022/04/03 04:33:59;;;;;;;3.92;2.45;;;0.30;99.90;;;;;;5006263;28;20083;-67
2022/04/03 04:36:28;;;;;;;6.93;2.80;;;0.30;99.90;;;;;;5024866;28;20456;-67
2022/04/03 04:38:54;;;;;;;5.45;2.35;;;0.40;99.90;;;;;;5006045;28;20111;-68
2022/04/03 04:41:20;;;;;;;3.67;2.40;;;0.40;99.90;;;;;;5006311;28;20049;-68
2022/04/03 04:43:46;;;;;;;3.80;2.20;;;0.40;99.90;;;;;;5005830;28;20050;-68
2022/04/03 04:46:12;;;;;;;3.00;2.10;;;0.40;99.90;;;;;;5005237;28;20041;-68
2022/04/03 04:48:37;;;;;;;4.10;2.30;;;0.40;99.90;;;;;;5007132;28;20512;-68
2022/04/03 04:51:04;;;;;;;4.63;2.00;;;0.40;99.90;;;;;;5006781;28;20053;-67
2022/04/03 04:53:29;;;;;;;5.97;2.33;;;0.40;99.90;;;;;;5020712;28;20045;-67
2022/04/03 04:55:55;;;;;;;5.75;2.53;;;0.30;99.90;;;;;;5005006;28;20072;-67
2022/04/03 04:58:21;;;;;;;4.28;2.10;;;0.30;99.90;;;;;;5006935;28;20037;-67
2022/04/03 05:00:46;;;;;;;4.45;2.20;;;0.30;99.90;;;;;;5004847;28;20511;-67
2022/04/03 05:03:12;;;;;;;3.65;2.30;;;0.20;99.90;;;;;;5007374;28;20106;-67
2022/04/03 05:05:39;;;;;;;5.78;2.22;;;0.10;99.90;;;;;;5005903;28;20516;-67
2022/04/03 05:08:05;;;;;;;3.53;2.28;;;0.10;99.90;;;;;;5004319;28;20057;-67
2022/04/03 05:10:31;;;;;;;5.35;2.55;;;0.00;99.90;;;;;;5005227;28;20099;-67
2022/04/03 05:12:59;;;;;;;5.30;2.17;;;0.00;99.90;;;;;;5007424;28;20504;-68
2022/04/03 05:15:27;;;;;;;2.78;2.03;;;0.00;99.90;;;;;;5024950;28;20046;-67
2022/04/03 05:17:53;;;;;;;4.63;2.05;;;-0.10;99.90;;;;;;5006765;28;20046;-67
2022/04/03 05:20:19;;;;;;;6.25;3.10;;;-0.20;99.90;;;;;;5006093;28;20118;-67
2022/04/03 05:22:45;;;;;;;5.05;2.78;;;-0.20;99.90;;;;;;5006645;28;20117;-68
2022/04/03 05:25:11;;;;;;;3.53;2.35;;;-0.20;99.90;;;;;;5008432;28;20128;-68
2022/04/03 05:27:41;;;;;;;3.97;2.05;;;-0.20;99.90;;;;;;5023854;28;20056;-68
2022/04/03 05:30:08;;;;;;;3.22;2.25;;;-0.30;99.90;;;;;;5007660;28;20033;-67
2022/04/03 05:32:36;;;;;;;5.50;2.97;;;-0.30;99.90;;;;;;5006620;28;20133;-68
2022/04/03 05:35:03;;;;;;;7.63;4.10;;;-0.30;99.90;;;;;;5023869;28;20511;-68
2022/04/03 05:37:29;;;;;;;4.00;2.47;;;-0.30;99.90;;;;;;5018351;28;20133;-68
2022/04/03 05:39:55;;;;;;;3.95;2.53;;;-0.40;99.90;;;;;;5017798;28;20490;-68
2022/04/03 05:42:21;;;;;;;5.90;2.53;;;-0.40;99.90;;;;;;5004791;28;20133;-68
2022/04/03 05:44:48;;;;;;;5.40;2.88;;;-0.40;99.90;;;;;;4989836;28;20053;-68
2022/04/03 05:47:16;;;;;;;5.60;2.97;;;-0.50;99.90;;;;;;5004216;28;20045;-69
2022/04/03 05:49:42;;;;;;;5.22;2.72;;;-0.50;99.90;;;;;;5006319;28;20049;-68
2022/04/03 05:52:07;;;;;;;4.63;3.03;;;-0.50;99.90;;;;;;5004149;28;20049;-67
2022/04/03 05:54:33;;;;;;;3.53;2.40;;;-0.50;99.90;;;;;;5005157;28;20048;-68
2022/04/03 05:56:59;;;;;;;5.20;2.72;;;-0.50;99.90;;;;;;4989607;28;20053;-68
2022/04/03 05:59:25;;;;;;;6.70;2.85;;;-0.50;99.90;;;;;;5006072;28;20052;-69
2022/04/03 06:01:50;;;;;;;4.53;2.38;;;-0.40;99.90;;;;;;5006068;28;20458;-69
2022/04/03 06:04:16;;;;;;;3.83;2.47;;;-0.40;99.90;;;;;;5022773;28;20477;-69
2022/04/03 06:06:42;;;;;;;5.82;2.55;;;-0.30;99.90;;;;;;5003816;28;20140;-69
2022/04/03 06:09:08;;;;;;;4.10;2.45;;;-0.20;99.90;;;;;;5007237;28;20465;-69
2022/04/03 06:11:34;;;;;;;4.65;2.47;;;-0.10;99.90;;;;;;5005580;28;20048;-69
2022/04/03 06:14:00;;;;;;;5.10;2.28;;;0.00;99.90;;;;;;5004540;28;20041;-67
2022/04/03 06:16:27;;;;;;;4.38;2.30;;;0.20;99.90;;;;;;5005135;28;20053;-67
2022/04/03 06:18:53;;;;;;;3.72;2.33;;;0.30;99.90;;;;;;5025294;28;20111;-67
2022/04/03 06:21:19;;;;;;;4.28;2.10;;;0.50;99.90;;;;;;5024898;28;20649;-67
2022/04/03 06:23:45;;;;;;;4.03;2.28;;;0.70;99.90;;;;;;5005160;28;20050;-67
2022/04/03 06:26:11;;;;;;;4.60;2.40;;;0.80;99.90;;;;;;4986205;28;20469;-67
2022/04/03 06:28:37;;;;;;;3.40;2.30;;;0.90;99.90;;;;;;5024748;28;20120;-67
2022/04/03 06:31:02;;;;;;;2.88;1.80;;;1.10;99.90;;;;;;5022941;28;20026;-67
2022/04/03 06:33:28;;;;;;;2.50;1.90;;;1.30;99.90;;;;;;5019219;28;20033;-67
2022/04/03 06:35:54;;;;;;;5.75;1.90;;;1.40;99.90;;;;;;4986002;28;20041;-67
2022/04/03 06:38:20;;;;;;;6.22;2.10;;;1.60;99.90;;;;;;5020847;28;20489;-66
2022/04/03 06:40:52;;;;;;;4.90;2.03;;;1.60;99.90;;;;;;5019038;28;20045;-67
2022/04/03 06:43:23;;;;;;;3.22;2.20;;;1.60;99.90;;;;;;5020412;28;20057;-66
2022/04/03 06:45:50;;;;;;;3.13;1.73;;;1.60;99.90;;;;;;5000574;28;20054;-67
2022/04/03 06:48:16;;;;;;;3.42;1.60;;;1.60;99.90;;;;;;5023497;28;20046;-67
2022/04/03 06:50:42;;;;;;;6.13;2.30;;;1.70;99.90;;;;;;5023263;28;20041;-68
2022/04/03 06:53:08;;;;;;;4.20;1.75;;;1.70;99.90;;;;;;5018554;28;20044;-68
2022/04/03 06:55:34;;;;;;;6.70;1.98;;;1.80;99.90;;;;;;5023052;28;20042;-68
2022/04/03 06:58:00;;;;;;;2.78;1.90;;;2.10;99.90;;;;;;5021015;28;20037;-68
2022/04/03 07:00:26;;;;;;;4.22;1.50;;;2.40;99.90;;;;;;5019739;28;20038;-67
2022/04/03 07:02:52;;;;;;;3.40;1.50;;;2.60;99.90;;;;;;5001565;28;20401;-67
2022/04/03 07:05:18;;;;;;;5.95;1.80;;;2.80;99.90;;;;;;5023163;28;20037;-67
2022/04/03 07:07:44;;;;;;;5.57;1.52;;;3.00;99.90;;;;;;5018779;28;20037;-67
2022/04/03 07:10:10;;;;;;;3.83;1.77;;;3.20;99.90;;;;;;5008646;28;20045;-68
2022/04/03 07:12:37;;;;;;;4.40;1.75;;;3.50;99.90;;;;;;5018808;28;20100;-68
2022/04/03 07:15:04;;;;;;;4.00;1.30;;;3.90;99.90;;;;;;5003227;28;20049;-68
2022/04/03 07:17:30;;;;;;;3.63;1.10;;;4.30;99.90;;;;;;5020876;28;20048;-68
2022/04/03 07:19:56;;;;;;;5.85;1.13;;;4.70;99.90;;;;;;5021776;28;20401;-68
2022/04/03 07:22:22;;;;;;;5.07;1.33;;;4.80;99.90;;;;;;5017875;28;20092;-66
2022/04/03 07:24:48;;;;;;;3.10;1.10;;;5.20;99.90;;;;;;5002891;28;20170;-67
2022/04/03 07:27:13;;;;;;;4.22;1.40;;;5.70;99.90;;;;;;4999795;28;20076;-66
2022/04/03 07:29:39;;;;;;;2.58;0.85;;;6.30;99.90;;;;;;5021932;28;20033;-67
2022/04/03 07:32:05;;;;;;;2.33;0.90;;;7.30;99.90;;;;;;5014775;28;20042;-67
2022/04/03 07:34:31;;;;;;;3.03;1.17;;;8.30;99.90;;;;;;5018634;28;20052;-67
2022/04/03 07:36:57;;;;;;;4.60;0.95;;;9.00;98.40;;;;;;5019466;28;20038;-67
2022/04/03 07:39:24;;;;;;;3.40;0.82;;;9.30;96.70;;;;;;5018278;28;20488;-68
2022/04/03 07:41:50;;;;;;;2.28;0.68;;;9.70;96.60;;;;;;5018900;28;20062;-68
2022/04/03 07:44:16;;;;;;;1.52;0.60;;;10.30;94.50;;;;;;5003706;28;20045;-68
2022/04/03 07:46:42;;;;;;;2.00;0.50;;;10.60;93.00;;;;;;5019997;28;20401;-68
2022/04/03 07:49:08;;;;;;;4.55;0.60;;;10.80;90.40;;;;;;5007019;28;20140;-68
2022/04/03 07:51:34;;;;;;;2.13;0.50;;;10.90;87.20;;;;;;5024685;28;20034;-68
2022/04/03 07:54:00;;;;;;;2.03;0.52;;;11.00;86.80;;;;;;5007173;28;20147;-67
2022/04/03 07:56:25;;;;;;;3.95;0.50;;;11.40;86.40;;;;;;5021499;28;20116;-67
2022/04/03 07:58:51;;;;;;;2.67;0.50;;;11.60;85.00;;;;;;5018414;28;20057;-67
2022/04/03 08:01:17;;;;;;;2.42;0.50;;;11.40;81.30;;;;;;5014215;28;20060;-67
2022/04/03 08:03:43;;;;;;;5.38;0.50;;;11.60;80.90;;;;;;5012019;28;20143;-66
2022/04/03 08:06:09;;;;;;;4.45;0.73;;;12.00;81.30;;;;;;5015521;28;20417;-67
2022/04/03 08:08:35;;;;;;;2.95;0.40;;;12.50;79.40;;;;;;5019885;28;20496;-67
2022/04/03 08:11:01;;;;;;;3.13;0.47;;;12.80;77.90;;;;;;4999701;28;20041;-67
2022/04/03 08:13:27;;;;;;;5.57;0.60;;;12.90;74.80;;;;;;5018699;28;20042;-67
2022/04/03 08:15:52;;;;;;;1.85;0.43;;;12.60;73.80;;;;;;5014847;28;20045;-67
2022/04/03 08:18:19;;;;;;;2.10;0.43;;;12.80;74.40;;;;;;5013319;28;20045;-68
2022/04/03 08:20:45;;;;;;;4.32;0.50;;;12.60;72.60;;;;;;5016840;28;20045;-67
2022/04/03 08:23:11;;;;;;;3.28;0.55;;;12.50;72.70;;;;;;5019903;28;20059;-68
2022/04/03 08:25:39;;;;;;;3.47;0.70;;;12.40;71.90;;;;;;5021562;28;20136;-68
2022/04/03 08:28:07;;;;;;;2.00;0.38;;;12.40;72.50;;;;;;5021007;28;20048;-67
2022/04/03 08:30:35;;;;;;;4.07;0.50;;;12.60;72.20;;;;;;5014498;28;20033;-67
2022/04/03 08:33:03;;;;;;;3.40;0.47;;;12.30;72.20;;;;;;5028265;28;20366;-67
2022/04/03 08:35:31;;;;;;;2.28;0.50;;;11.60;71.60;;;;;;5030344;28;20362;-67
2022/04/03 08:37:58;;;;;;;2.83;0.45;;;10.90;74.40;;;;;;5002283;28;20072;-67
2022/04/03 08:40:25;;;;;;;2.45;0.40;;;10.30;75.10;;;;;;5024069;28;20044;-67
2022/04/03 08:42:54;;;;;;;7.15;0.40;;;10.30;76.60;;;;;;4992368;28;20049;-68
2022/04/03 08:45:21;;;;;;;5.43;0.57;;;10.50;76.70;;;;;;5021524;28;20053;-67
2022/04/03 08:47:58;;;;;;;4.85;0.68;;;10.90;75.60;;;;;;5014273;28;20472;-67
2022/04/03 08:50:36;;;;;;;2.22;0.43;;;11.40;73.60;;;;;;5025337;28;20456;-67
2022/04/03 08:53:04;;;;;;;4.38;0.40;;;11.00;74.00;;;;;;5004821;28;20143;-67
2022/04/03 08:55:31;;;;;;;2.38;0.45;;;11.20;74.90;;;;;;5007058;28;20041;-67
2022/04/03 08:57:57;;;;;;;1.75;0.32;;;11.00;73.80;;;;;;5024996;28;20045;-66
2022/04/03 09:00:23;;;;;;;2.55;0.20;;;10.40;71.90;;;;;;5025484;28;20033;-66
2022/04/03 09:02:50;;;;;;;1.77;0.20;;;10.10;73.40;;;;;;5020359;28;20389;-67
2022/04/03 09:05:17;;;;;;;3.75;0.38;;;10.50;74.00;;;;;;5021698;28;20069;-67
2022/04/03 09:07:43;;;;;;;3.65;0.40;;;11.00;73.00;;;;;;5019248;28;20152;-67
2022/04/03 09:10:13;;;;;;;3.00;0.40;;;11.80;71.40;;;;;;5021859;28;20921;-67
2022/04/03 09:12:49;;;;;;;2.95;0.50;;;12.10;69.20;;;;;;5020089;28;20034;-67
2022/04/03 09:15:17;;;;;;;3.63;0.30;;;12.00;67.70;;;;;;5023066;28;20044;-67
2022/04/03 09:17:55;;;;;;;1.88;0.30;;;11.10;69.20;;;;;;5005481;28;20041;-67
2022/04/03 09:20:23;;;;;;;2.85;0.40;;;10.10;69.60;;;;;;5022453;28;20076;-67
2022/04/03 09:22:51;;;;;;;2.42;0.20;;;9.50;71.90;;;;;;5020707;28;20087;-67
2022/04/03 09:25:29;;;;;;;1.52;0.40;;;9.20;72.90;;;;;;5003205;28;20046;-68
2022/04/03 09:28:00;;;;;;;2.63;0.35;;;10.00;73.70;;;;;;5005801;28;20057;-68
2022/04/03 09:30:38;;;;;;;2.25;0.35;;;10.90;72.60;;;;;;5004208;28;20057;-71
2022/04/03 09:33:06;;;;;;;1.05;0.30;;;11.70;70.30;;;;;;4989659;28;20049;-72
2022/04/03 09:36:11;;;;;;;59.03;22.30;;;12.50;69.50;;;;;;5004572;28;20370;-69
2022/04/03 09:38:37;;;;;;;3.00;0.40;;;13.30;74.10;;;;;;4966744;28;20202;-65
2022/04/03 09:41:03;;;;;;;1.17;0.20;;;14.00;66.30;;;;;;4946252;28;20617;-66
2022/04/03 09:43:38;;;;;;;1.50;0.20;;;14.30;62.30;;;;;;4976747;28;20050;-67
2022/04/03 09:46:11;;;;;;;1.80;0.20;;;14.40;58.60;;;;;;5021368;28;20042;-68
2022/04/03 09:48:47;;;;;;;1.50;0.20;;;13.60;58.30;;;;;;5022709;28;20052;-66
2022/04/03 09:51:22;;;;;;;4.07;0.30;;;12.40;59.90;;;;;;5026212;28;20048;-66
2022/04/03 09:54:01;;;;;;;0.77;0.20;;;11.20;61.70;;;;;;5025380;28;20041;-67
2022/04/03 09:56:34;;;;;;;2.22;0.30;;;10.30;64.40;;;;;;5010440;28;20108;-66
2022/04/03 09:59:06;;;;;;;1.98;0.38;;;9.70;69.20;;;;;;5024026;28;20049;-65
2022/04/03 10:01:34;;;;;;;3.00;0.40;;;9.10;72.20;;;;;;5025980;28;20044;-65
2022/04/03 10:04:02;;;;;;;3.08;0.43;;;8.50;73.80;;;;;;5018138;28;20452;-65
2022/04/03 10:06:29;;;;;;;0.88;0.20;;;8.10;76.00;;;;;;5019294;28;20038;-65
2022/04/03 10:08:56;;;;;;;2.55;0.40;;;7.80;76.20;;;;;;5024744;28;20481;-66
2022/04/03 10:11:22;;;;;;;3.80;0.30;;;7.70;77.90;;;;;;5004567;28;20507;-67
2022/04/03 10:13:48;;;;;;;2.60;0.55;;;7.70;78.10;;;;;;4998461;28;20050;-67
2022/04/03 10:16:16;;;;;;;1.98;0.30;;;7.70;79.80;;;;;;4998014;28;20062;-67
2022/04/03 10:18:43;;;;;;;3.33;0.40;;;7.80;79.70;;;;;;4995512;28;20500;-66
2022/04/03 10:21:19;;;;;;;1.15;0.30;;;7.90;81.80;;;;;;5017076;28;20049;-66
2022/04/03 10:23:46;;;;;;;2.63;0.60;;;8.00;78.90;;;;;;5021377;28;20120;-65
2022/04/03 10:26:17;;;;;;;23.73;7.32;;;7.90;78.30;;;;;;5023722;28;20073;-67
2022/04/03 10:28:50;;;;;;;3.22;0.60;;;7.80;79.80;;;;;;5005987;28;20519;-65
2022/04/03 10:31:16;;;;;;;1.52;0.30;;;7.70;80.80;;;;;;5019495;28;20041;-69
2022/04/03 10:33:44;;;;;;;1.65;0.35;;;7.70;80.40;;;;;;5002518;28;20046;-68
2022/04/03 10:36:12;;;;;;;3.00;0.43;;;7.60;80.80;;;;;;5002863;28;20199;-68
2022/04/03 10:38:55;;;;;;;3.03;0.50;;;7.60;81.30;;;;;;5020993;28;20041;-69
2022/04/03 10:41:43;;;;;;;3.15;0.30;;;7.50;80.70;;;;;;5023125;28;20049;-69
2022/04/03 10:44:15;;;;;;;1.70;0.30;;;7.50;80.60;;;;;;4988147;28;20068;-69
2022/04/03 10:47:02;;;;;;;1.88;0.20;;;7.50;80.90;;;;;;5005246;28;20045;-68
2022/04/03 10:49:38;;;;;;;2.35;0.35;;;7.60;81.40;;;;;;5020038;28;20421;-68
2022/04/03 10:52:08;;;;;;;2.05;0.40;;;7.60;82.10;;;;;;5021846;28;20038;-68
2022/04/03 10:54:53;;;;;;;1.23;0.20;;;7.70;80.50;;;;;;5019274;28;20436;-68
2022/04/03 10:57:53;;;;;;;1.80;0.30;;;7.70;80.50;;;;;;5016057;28;20369;-69
2022/04/03 11:00:19;;;;;;;3.90;0.40;;;7.70;79.60;;;;;;4956981;28;20061;-69
2022/04/03 11:03:13;;;;;;;0.93;0.30;;;7.90;79.30;;;;;;5019116;28;20033;-69
2022/04/03 11:05:40;;;;;;;2.35;0.30;;;8.80;78.40;;;;;;4993779;28;20054;-68
2022/04/03 11:08:05;;;;;;;1.70;0.47;;;9.80;79.70;;;;;;4998776;28;20052;-68
2022/04/03 11:10:57;;;;;;;2.63;0.30;;;10.90;79.50;;;;;;5021346;28;20619;-69
2022/04/03 11:13:32;;;;;;;1.27;0.20;;;12.10;74.60;;;;;;5001677;28;20049;-68
2022/04/03 11:16:09;;;;;;;1.17;0.30;;;12.80;68.40;;;;;;5011766;28;20057;-69
2022/04/03 11:18:35;;;;;;;3.15;0.22;;;12.80;68.20;;;;;;5002058;28;20046;-69
2022/04/03 11:21:26;;;;;;;1.75;0.20;;;12.30;67.60;;;;;;5023859;28;20068;-70
2022/04/03 11:23:58;;;;;;;1.67;0.30;;;11.90;64.90;;;;;;5003979;28;20107;-68
2022/04/03 11:26:23;;;;;;;1.90;0.28;;;11.30;63.80;;;;;;5002455;28;20061;-68
2022/04/03 11:28:49;;;;;;;1.42;0.22;;;10.70;65.20;;;;;;5022660;28;20045;-68
2022/04/03 11:31:16;;;;;;;2.08;0.20;;;10.40;66.60;;;;;;5021101;28;20061;-68
2022/04/03 11:33:42;;;;;;;2.38;0.20;;;10.20;67.50;;;;;;4987743;28;20583;-68
2022/04/03 11:36:14;;;;;;;1.75;0.30;;;10.10;67.60;;;;;;4987451;28;20050;-69
2022/04/03 11:38:46;;;;;;;1.58;0.20;;;9.80;68.10;;;;;;5019355;28;20046;-69
2022/04/03 11:41:17;;;;;;;2.42;0.20;;;9.60;69.20;;;;;;5020794;28;20054;-69
2022/04/03 11:43:54;;;;;;;2.50;0.32;;;9.40;70.70;;;;;;5018826;28;20057;-69
2022/04/03 11:46:22;;;;;;;1.98;0.30;;;9.20;70.40;;;;;;5022194;28;20042;-69
2022/04/03 11:48:47;;;;;;;1.00;0.20;;;9.10;69.90;;;;;;5001743;28;20092;-69
2022/04/03 11:51:16;;;;;;;1.42;0.30;;;8.90;70.00;;;;;;5003408;28;20046;-68
2022/04/03 11:53:44;;;;;;;3.25;0.20;;;8.80;69.70;;;;;;5001179;28;20046;-68
2022/04/03 11:56:17;;;;;;;0.65;0.15;;;8.70;71.00;;;;;;4998899;28;20045;-68
2022/04/03 11:58:46;;;;;;;2.13;0.20;;;8.60;70.90;;;;;;4995085;28;20139;-67
2022/04/03 12:01:12;;;;;;;1.23;0.25;;;8.50;71.50;;;;;;5018952;28;20061;-68
2022/04/03 12:03:38;;;;;;;0.90;0.38;;;8.50;75.10;;;;;;5020761;28;20036;-68
2022/04/03 12:06:17;;;;;;;2.17;0.30;;;8.40;76.70;;;;;;5018346;28;20037;-68
2022/04/03 12:08:48;;;;;;;2.83;0.40;;;8.30;77.70;;;;;;4999968;28;20124;-69
2022/04/03 12:11:24;;;;;;;1.65;0.22;;;8.00;78.90;;;;;;5022424;28;20167;-68
2022/04/03 12:13:50;;;;;;;1.35;0.30;;;7.80;79.70;;;;;;5018200;28;20140;-68
2022/04/03 12:16:19;;;;;;;1.40;0.32;;;7.50;80.70;;;;;;5000991;28;20164;-68
2022/04/03 12:19:01;;;;;;;3.13;0.50;;;7.40;82.60;;;;;;5016879;28;20046;-68
2022/04/03 12:21:46;;;;;;;3.67;0.43;;;7.30;84.10;;;;;;5020598;28;20113;-68
2022/04/03 12:24:20;;;;;;;0.90;0.25;;;7.30;84.80;;;;;;5007913;28;20468;-68
2022/04/03 12:26:47;;;;;;;3.67;0.40;;;7.20;83.20;;;;;;5027261;28;20076;-68
2022/04/03 12:29:14;;;;;;;1.45;0.30;;;7.20;83.10;;;;;;5008109;28;20056;-68
2022/04/03 12:31:40;;;;;;;2.85;0.55;;;7.10;83.80;;;;;;4991399;28;20050;-68
2022/04/03 12:34:15;;;;;;;4.32;0.38;;;7.30;83.10;;;;;;5026862;28;20037;-68
2022/04/03 12:36:42;;;;;;;;;;;7.30;83.10;;;;;;5012000;28;20389;-68
2022/04/03 12:39:40;;;;;;;1.05;0.30;;;7.20;84.00;;;;;;4989517;28;19932;-68
2022/04/03 12:42:18;;;;;;;3.28;0.40;;;7.20;84.10;;;;;;5026206;28;20061;-66
2022/04/03 12:44:46;;;;;;;0.80;0.28;;;7.10;84.70;;;;;;5002465;28;20046;-68
2022/04/03 12:47:17;;;;;;;2.65;0.85;;;7.20;84.00;;;;;;5006469;28;20397;-68
2022/04/03 12:50:06;;;;;;;0.43;0.20;;;7.30;83.30;;;;;;4983470;28;20073;-68
2022/04/03 12:52:42;;;;;;;1.92;0.40;;;7.30;82.90;;;;;;4988275;28;20046;-69
2022/04/03 12:55:32;;;;;;;2.70;0.43;;;7.30;82.50;;;;;;4994736;28;20123;-68